KTVC/TVC METAR and TAF weather

Enter ICAO airport designator
Station Type Date Time Source
KTVC METAR 2019/04/20 21:53 UTC NOAA

KTVC 202153Z 34007KT 10SM FEW160 13/M04 A2978 RMK AO2 SLP090 T01331039


Station Type Date Time Source
KTVC Decoded METAR 2019/04/20 21:53 UTC NOAA

CHERRY CAPITAL AIRPORT, MI, United States (KTVC) 44-44N 085-34W 190M
Apr 20, 2019 - 05:53 PM EDT / 2019.04.20 2153 UTC
Wind: from the NNW (340 degrees) at 8 MPH (7 KT):0
Visibility: 10 mile(s):0
Sky conditions: mostly clear
Temperature: 55.9 F (13.3 C)
Dew Point: 25.0 F (-3.9 C)
Relative Humidity: 29%
Pressure (altimeter): 29.78 in. Hg (1008 hPa)
ob: KTVC 202153Z 34007KT 10SM FEW160 13/M04 A2978 RMK AO2 SLP090 T01331039
cycle: 22

Station Type Date Time Source
KTVC TAF 2019/04/20 18:34 UTC NOAA

TAF KTVC 201731Z 2018/2118 02006KT P6SM FEW250
FM201900 01010G18KT P6SM SKC
FM202100 36009KT P6SM SKC
FM210100 VRB03KT P6SM SKC
FM211200 19005KT P6SM SCT090
FM211400 21005KT P6SM BKN100

Example: see airport list